Latest Coastal Weather Observations for Cape Otway

IDV60701

Issued at 1:05 pm EST Thursday 28 August 2014 (issued every 10 minutes, with the page automatically refreshed every 10 minutes)

About coastal observations | Map of coastal stations | Coastal observations for VIC | Marine services | Other Formats
Station Details ID: 090015 Name: CAPE OTWAY LIGHTHOUSE Lat: -38.86 Lon: 143.51 Height: 82.0 m
Data from the previous 72 hours. | See also: Recent months at Cape Otway
Date/Time
EST
Temp

°C
Wind Pressure Rain
since 9am
mm
Weather Cloud Vis
km
Sea
Height
m
Swell
Dir
 
Speed
knots
Gust
knots
hPa Trend Height
m
Period
s
Dir
28/01:00pm 13.6 - 1 4 1027.8 - 0.0 - - - - - - -
28/12:30pm 13.5 CALM 0 0 1028.1 - 0.0 - - - - - - -
28/12:00pm 13.7 - 1 4 1028.6 - 0.0 - - - - - - -
28/11:30am 13.8 - 1 3 1028.9 - 0.0 - - - - - - -
28/11:00am 12.6 - 3 4 1029.1 - 0.0 - - - - - - -
28/10:30am 12.5 - 3 4 1029.3 - 0.0 - - - - - - -
28/10:00am 12.3 - 2 4 1029.5 - 0.0 - - - - - - -
28/09:30am 12.3 CALM 0 4 1029.4 - 0.0 - - - - - - -
28/09:00am 11.9 CALM 0 0 1029.4 - 0.0 - - - - - - -
28/08:30am 11.3 - 1 4 1029.2 - 0.0 - - - - - - -
28/08:00am 9.0 - 4 5 1029.1 - 0.0 - - - - - - -
28/07:30am 7.3 - 5 6 1029.0 - 0.0 - - - - - - -
28/07:00am 6.8 CALM 0 0 1028.7 - 0.0 - - - - - - -
28/06:30am 6.6 - 3 4 1028.6 - 0.0 - - - - - - -
28/06:00am 7.0 - 4 5 1028.4 - 0.0 - - - - - - -
28/05:30am 8.0 - 5 6 1028.0 - 0.0 - - - - - - -
28/05:00am 8.2 - 5 6 1027.8 - 0.0 - - - - - - -
28/04:30am 6.2 - 4 4 1027.7 - 0.0 - - - - - - -
28/04:00am 6.1 - 3 4 1027.6 - 0.0 - - - - - - -
28/03:30am 6.2 - 4 5 1027.5 - 0.0 - - - - - - -
28/03:00am 6.3 - 3 4 1027.7 - 0.0 - - - - - - -
28/02:30am 7.1 - 6 7 1027.9 - 0.0 - - - - - - -
28/02:00am 7.8 - 7 8 1028.1 - 0.0 - - - - - - -
28/01:30am 7.4 - 7 9 1028.3 - 0.0 - - - - - - -
28/01:00am 7.2 CALM 0 3 1028.6 - 0.0 - - - - - - -
28/12:30am 7.0 - 2 4 1028.8 - 0.0 - - - - - - -
28/12:00am 7.8 CALM 0 0 1028.8 - 0.0 - - - - - - -
 
Date/Time
EST
Temp

°C
Wind Pressure Rain
since 9am
mm
Weather Cloud Vis
km
Sea
Height
m
Swell
Dir
 
Speed
knots
Gust
knots
hPa Trend Height
m
Period
s
Dir
27/11:30pm 6.2 CALM 0 0 1029.0 - 0.0 - - - - - - -
27/11:00pm 6.7 CALM 0 0 1028.9 - 0.0 - - - - - - -
27/10:30pm 7.2 CALM 0 0 1028.8 - 0.0 - - - - - - -
27/10:00pm 7.5 CALM 0 0 1028.8 - 0.0 - - - - - - -
27/09:30pm 7.5 CALM 0 0 1028.8 - 0.0 - - - - - - -
27/09:00pm 7.4 CALM 0 0 1028.8 - 0.0 - - - - - - -
27/08:30pm 7.3 CALM 0 0 1028.9 - 0.0 - - - - - - -
27/08:00pm 7.8 CALM 0 0 1028.7 - 0.0 - - - - - - -
27/07:30pm 8.4 CALM 0 0 1028.5 - 0.0 - - - - - - -
27/07:00pm 8.5 - 2 3 1028.4 - 0.0 - - - - - - -
27/06:30pm 9.4 CALM 0 0 1028.0 - 0.0 - - - - - - -
27/06:00pm 10.5 CALM 0 0 1027.8 - 0.0 - - - - - - -
27/05:30pm 11.5 - 1 4 1027.5 - 0.0 - - - - - - -
27/05:00pm 12.1 - 3 5 1027.2 - 0.0 - - - - - - -
27/04:30pm 12.1 - 5 7 1027.1 - 0.0 - - - - - - -
27/04:00pm 12.0 - 5 7 1027.2 - 0.0 - - - - - - -
27/03:30pm 12.2 - 5 8 1027.1 - 0.0 - - - - - - -
27/03:00pm 11.9 - 5 7 1027.2 - 0.0 - - - - - - -
27/02:30pm 12.0 - 3 5 1027.2 - 0.0 - - - - - - -
27/02:00pm 12.4 - 3 5 1027.5 - 0.0 - - - - - - -
27/01:30pm 11.7 - 5 7 1027.7 - 0.0 - - - - - - -
27/01:00pm 12.1 - 3 4 1027.8 - 0.0 - - - - - - -
27/12:30pm 11.7 - 5 8 1028.1 - 0.0 - - - - - - -
27/12:00pm 12.0 - 4 6 1028.5 - 0.0 - - - - - - -
27/11:30am 11.8 - 5 7 1028.5 - 0.0 - - - - - - -
27/11:00am 11.6 - 5 6 1028.3 - 0.0 - - - - - - -
27/10:30am 11.2 - 4 6 1028.4 - 0.0 - - - - - - -
27/10:00am 11.0 - 5 7 1028.5 - 0.0 - - - - - - -
27/09:30am 11.1 - 2 5 1028.1 - 0.0 - - - - - - -
27/09:00am 10.7 - 1 5 1028.1 - 0.4 - - - - - - -
27/08:30am 10.7 - 4 5 1027.9 - 0.4 - - - - - - -
27/08:00am 8.3 CALM 0 0 1027.7 - 0.4 - - - - - - -
27/07:30am 7.5 CALM 0 0 1027.4 - 0.4 - - - - - - -
27/07:00am 6.3 - 1 3 1027.1 - 0.4 - - - - - - -
27/06:30am 7.1 CALM 0 0 1026.7 - 0.4 - - - - - - -
27/06:00am 7.3 CALM 0 0 1026.4 - 0.4 - - - - - - -
27/05:30am 7.7 CALM 0 0 1026.2 - 0.4 - - - - - - -
27/05:00am 7.3 - 2 4 1026.1 - 0.4 - - - - - - -
27/04:30am 7.9 - 1 3 1026.0 - 0.0 - - - - - - -
27/04:00am 8.1 - 5 6 1026.1 - 0.0 - - - - - - -
27/03:30am 9.1 - 4 5 1026.1 - 0.0 - - - - - - -
27/03:00am 10.3 - 7 9 1026.3 - 0.0 - - - - - - -
27/02:30am 10.1 - 7 8 1026.4 - 0.0 - - - - - - -
27/02:00am 9.8 - 8 10 1026.4 - 0.0 - - - - - - -
27/01:30am 9.2 - 6 7 1026.3 - 0.0 - - - - - - -
27/01:00am 10.3 - 5 5 1026.4 - 0.0 - - - - - - -
27/12:30am 11.1 - 5 6 1026.2 - 0.0 - - - - - - -
27/12:00am 11.6 - 8 9 1026.3 - 0.0 - - - - - - -
 
Date/Time
EST
Temp

°C
Wind Pressure Rain
since 9am
mm
Weather Cloud Vis
km
Sea
Height
m
Swell
Dir
 
Speed
knots
Gust
knots
hPa Trend Height
m
Period
s
Dir
26/11:30pm 11.5 - 9 10 1026.3 - 0.0 - - - - - - -
26/11:00pm 11.2 - 7 7 1026.5 - 0.0 - - - - - - -
26/10:30pm 10.9 - 6 7 1026.6 - 0.0 - - - - - - -
26/10:00pm 11.2 - 5 6 1026.7 - 0.0 - - - - - - -
26/09:30pm 11.8 - 6 7 1026.7 - 0.0 - - - - - - -
26/09:00pm 12.5 - 10 13 1026.9 - 0.0 - - - - - - -
26/08:30pm 12.7 - 10 14 1026.7 - 0.0 - - - - - - -
26/08:00pm 12.9 - 8 13 1026.9 - 0.0 - - - - - - -
26/07:30pm 12.8 - 6 10 1027.0 - 0.0 - - - - - - -
26/07:00pm 12.7 - 7 11 1026.9 - 0.0 - - - - - - -
26/06:30pm 12.8 - 11 15 1026.5 - 0.0 - - - - - - -
26/06:00pm 12.8 - 10 17 1026.2 - 0.0 - - - - - - -
26/05:30pm 13.0 - 12 19 1025.9 - 0.0 - - - - - - -
26/05:00pm 13.0 - 10 15 1026.1 - 0.0 - - - - - - -
26/04:30pm 13.3 - 10 17 1026.1 - 0.0 - - - - - - -
26/04:00pm 13.4 - 11 18 1026.1 - 0.0 - - - - - - -
26/03:30pm 13.6 - 11 16 1026.2 - 0.0 - - - - - - -
26/03:00pm 13.7 - 10 16 1026.4 - 0.0 - - - - - - -
26/02:30pm 13.9 - 10 15 1026.8 - 0.0 - - - - - - -
26/02:00pm 13.4 - 9 15 1027.0 - 0.0 - - - - - - -
26/01:30pm 13.7 - 7 13 1027.3 - 0.0 - - - - - - -
26/01:00pm 14.1 - 8 13 1027.8 - 0.0 - - - - - - -
26/12:30pm 13.9 - 11 16 1028.1 - 0.0 - - - - - - -
26/12:00pm 13.7 - 13 16 1028.5 - 0.0 - - - - - - -
26/11:30am 13.6 - 13 16 1028.8 - 0.0 - - - - - - -
26/11:00am 13.3 - 13 16 1029.1 - 0.0 - - - - - - -
26/10:30am 13.5 - 13 16 1029.2 - 0.0 - - - - - - -
26/10:00am 13.1 - 13 16 1029.4 - 0.0 - - - - - - -
26/09:30am 12.8 - 11 14 1029.6 - 0.0 - - - - - - -
26/09:00am 12.8 - 11 14 1029.6 R 0.0 Distant precip. Mostly cloudy 20 2 2.0 9 SW
26/08:30am 12.7 - 10 15 1029.4 - 0.0 - - - - - - -
26/08:00am 12.5 - 9 13 1029.2 - 0.0 - - - - - - -
26/07:30am 12.4 - 7 11 1029.2 - 0.0 - - - - - - -
26/07:00am 12.2 - 7 12 1028.9 - 0.0 - - - - - - -
26/06:30am 12.2 - 9 13 1028.6 - 0.0 - - - - - - -
26/06:00am 12.1 - 8 11 1028.5 - 0.0 - - - - - - -
26/05:30am 12.2 - 7 11 1028.3 - 0.0 - - - - - - -
26/05:00am 12.0 - 6 10 1028.4 - 0.0 - - - - - - -
26/04:30am 12.0 - 6 11 1028.5 - 0.0 - - - - - - -
26/04:00am 12.1 - 10 16 1028.5 - 0.0 - - - - - - -
26/03:30am 12.1 - 7 11 1028.4 - 0.0 - - - - - - -
26/03:00am 12.0 - 7 10 1028.9 - 0.0 - - - - - - -
26/02:30am 11.9 - 5 8 1029.0 - 0.0 - - - - - - -
26/02:00am 11.8 - 6 10 1029.2 - 0.0 - - - - - - -
26/01:30am 11.7 - 6 9 1029.2 - 0.0 - - - - - - -
26/01:00am 11.8 - 7 13 1029.5 - 0.0 - - - - - - -
26/12:30am 12.0 - 7 15 1029.6 - 0.0 - - - - - - -
26/12:00am 11.9 - 8 13 1029.8 - 0.0 - - - - - - -
 
Date/Time
EST
Temp

°C
Wind Pressure Rain
since 9am
mm
Weather Cloud Vis
km
Sea
Height
m
Swell
Dir
 
Speed
knots
Gust
knots
hPa Trend Height
m
Period
s
Dir
25/11:30pm 11.7 - 7 11 1029.8 - 0.0 - - - - - - -
25/11:00pm 11.6 - 7 11 1030.0 - 0.0 - - - - - - -
25/10:30pm 11.3 - 7 13 1030.0 - 0.0 - - - - - - -
25/10:00pm 11.3 - 8 13 1030.1 - 0.0 - - - - - - -
25/09:30pm 11.4 - 10 13 1029.9 - 0.0 - - - - - - -
25/09:00pm 11.5 - 9 13 1030.2 - 0.0 - - - - - - -
25/08:30pm 11.6 - 10 13 1030.1 - 0.0 - - - - - - -
25/08:00pm 11.5 - 9 12 1029.9 - 0.0 - - - - - - -
25/07:30pm 11.4 - 8 12 1029.8 - 0.0 - - - - - - -
25/07:00pm 11.5 - 8 11 1029.9 - 0.0 - - - - - - -
25/06:30pm 11.7 - 4 8 1029.7 - 0.0 - - - - - - -
25/06:00pm 11.8 - 8 11 1029.5 - 0.0 - - - - - - -
25/05:30pm 12.0 - 7 11 1029.3 - 0.0 - - - - - - -
25/05:00pm 12.3 - 8 11 1029.0 - 0.0 - - - - - - -
25/04:30pm 12.7 - 7 12 1028.9 - 0.0 - - - - - - -
25/04:00pm 12.6 - 12 15 1028.6 - 0.0 - - - - - - -
25/03:30pm 12.9 - 13 16 1028.5 - 0.0 - - - - - - -
25/03:00pm 12.7 - 14 18 1028.6 R 0.0 Distant precip. Mostly cloudy 20 2 3.0 9 SW
25/02:30pm 12.9 - 15 18 1028.4 - 0.0 - - - - - - -
25/02:00pm 12.8 - 11 16 1028.4 - 0.0 - - - - - - -
25/01:30pm 12.3 - 16 24 1028.1 - 0.0 - - - - - - -
25/01:28pm 12.7 - 16 23 1028.1 - 0.0 - - - - - - -
25/01:27pm 12.7 - 16 23 1028.1 - 0.0 - - - - - - -

Other Formats:

Comma delimited format used in spreadsheet applications
http://www.bom.gov.au/fwo/IDV60701/IDV60701.94842.axf

JavaScript Object Notation format (JSON) in row-major order
http://www.bom.gov.au/fwo/IDV60701/IDV60701.94842.json